sensor_id;sensor_type;location;lat;lon;timestamp;pressure;altitude;pressure_sealevel;temperature
4421;BMP180;11824;51.178;13.546;2024-01-11T00:00:51;101637.00;;;-9.20
4421;BMP180;11824;51.178;13.546;2024-01-11T00:03:19;101634.00;;;-9.20
4421;BMP180;11824;51.178;13.546;2024-01-11T00:05:48;101632.00;;;-9.20
4421;BMP180;11824;51.178;13.546;2024-01-11T00:08:16;101642.00;;;-9.20
4421;BMP180;11824;51.178;13.546;2024-01-11T00:10:45;101634.00;;;-9.20
4421;BMP180;11824;51.178;13.546;2024-01-11T00:13:14;101632.00;;;-9.30
4421;BMP180;11824;51.178;13.546;2024-01-11T00:15:44;101629.00;;;-9.30
4421;BMP180;11824;51.178;13.546;2024-01-11T00:18:13;101636.00;;;-9.30
4421;BMP180;11824;51.178;13.546;2024-01-11T00:20:42;101641.00;;;-9.30
4421;BMP180;11824;51.178;13.546;2024-01-11T00:23:11;101627.00;;;-9.30
4421;BMP180;11824;51.178;13.546;2024-01-11T00:25:40;101615.00;;;-9.30
4421;BMP180;11824;51.178;13.546;2024-01-11T00:28:09;101620.00;;;-9.30
4421;BMP180;11824;51.178;13.546;2024-01-11T00:30:37;101614.00;;;-9.30
4421;BMP180;11824;51.178;13.546;2024-01-11T00:33:08;101609.00;;;-9.30
4421;BMP180;11824;51.178;13.546;2024-01-11T00:35:37;101609.00;;;-9.40
4421;BMP180;11824;51.178;13.546;2024-01-11T00:38:06;101617.00;;;-9.30
4421;BMP180;11824;51.178;13.546;2024-01-11T00:40:35;101600.00;;;-9.30
4421;BMP180;11824;51.178;13.546;2024-01-11T00:43:04;101602.00;;;-9.40
4421;BMP180;11824;51.178;13.546;2024-01-11T00:45:33;101608.00;;;-9.30
4421;BMP180;11824;51.178;13.546;2024-01-11T00:48:03;101607.00;;;-9.40
4421;BMP180;11824;51.178;13.546;2024-01-11T00:50:33;101597.00;;;-9.40
4421;BMP180;11824;51.178;13.546;2024-01-11T00:53:02;101603.00;;;-9.40
4421;BMP180;11824;51.178;13.546;2024-01-11T00:55:31;101594.00;;;-9.40
4421;BMP180;11824;51.178;13.546;2024-01-11T00:58:00;101583.00;;;-9.40
4421;BMP180;11824;51.178;13.546;2024-01-11T01:00:28;101583.00;;;-9.40
4421;BMP180;11824;51.178;13.546;2024-01-11T01:02:57;101581.00;;;-9.50
4421;BMP180;11824;51.178;13.546;2024-01-11T01:05:26;101571.00;;;-9.50
4421;BMP180;11824;51.178;13.546;2024-01-11T01:07:56;101580.00;;;-9.50
4421;BMP180;11824;51.178;13.546;2024-01-11T01:10:25;101580.00;;;-9.50
4421;BMP180;11824;51.178;13.546;2024-01-11T01:12:54;101581.00;;;-9.50
4421;BMP180;11824;51.178;13.546;2024-01-11T01:15:23;101589.00;;;-9.50
4421;BMP180;11824;51.178;13.546;2024-01-11T01:17:51;101594.00;;;-9.50
4421;BMP180;11824;51.178;13.546;2024-01-11T01:20:21;101591.00;;;-9.50
4421;BMP180;11824;51.178;13.546;2024-01-11T01:22:50;101599.00;;;-9.50
4421;BMP180;11824;51.178;13.546;2024-01-11T01:25:21;101585.00;;;-9.50
4421;BMP180;11824;51.178;13.546;2024-01-11T01:27:49;101614.00;;;-9.50
4421;BMP180;11824;51.178;13.546;2024-01-11T01:30:18;101617.00;;;-9.40
4421;BMP180;11824;51.178;13.546;2024-01-11T01:32:47;101607.00;;;-9.40
4421;BMP180;11824;51.178;13.546;2024-01-11T01:35:16;101619.00;;;-9.40
4421;BMP180;11824;51.178;13.546;2024-01-11T01:37:45;101599.00;;;-9.40
4421;BMP180;11824;51.178;13.546;2024-01-11T01:40:14;101605.00;;;-9.40
4421;BMP180;11824;51.178;13.546;2024-01-11T01:42:45;101621.00;;;-9.40
4421;BMP180;11824;51.178;13.546;2024-01-11T01:45:15;101596.00;;;-9.40
4421;BMP180;11824;51.178;13.546;2024-01-11T01:47:44;101604.00;;;-9.40
4421;BMP180;11824;51.178;13.546;2024-01-11T01:50:14;101586.00;;;-9.40
4421;BMP180;11824;51.178;13.546;2024-01-11T01:52:43;101594.00;;;-9.50
4421;BMP180;11824;51.178;13.546;2024-01-11T01:55:13;101591.00;;;-9.50
4421;BMP180;11824;51.178;13.546;2024-01-11T01:57:45;101601.00;;;-9.50
4421;BMP180;11824;51.178;13.546;2024-01-11T02:00:15;101612.00;;;-9.50
4421;BMP180;11824;51.178;13.546;2024-01-11T02:02:44;101597.00;;;-9.50
4421;BMP180;11824;51.178;13.546;2024-01-11T02:05:15;101588.00;;;-9.50
4421;BMP180;11824;51.178;13.546;2024-01-11T02:07:45;101583.00;;;-9.50
4421;BMP180;11824;51.178;13.546;2024-01-11T02:10:14;101588.00;;;-9.50
4421;BMP180;11824;51.178;13.546;2024-01-11T02:12:44;101599.00;;;-9.50
4421;BMP180;11824;51.178;13.546;2024-01-11T02:15:14;101597.00;;;-9.50
4421;BMP180;11824;51.178;13.546;2024-01-11T02:17:43;101605.00;;;-9.50
4421;BMP180;11824;51.178;13.546;2024-01-11T02:20:12;101608.00;;;-9.60
4421;BMP180;11824;51.178;13.546;2024-01-11T02:22:47;101608.00;;;-9.60
4421;BMP180;11824;51.178;13.546;2024-01-11T02:25:19;101601.00;;;-9.60
4421;BMP180;11824;51.178;13.546;2024-01-11T02:27:49;101601.00;;;-9.60
4421;BMP180;11824;51.178;13.546;2024-01-11T02:30:18;101606.00;;;-9.60
4421;BMP180;11824;51.178;13.546;2024-01-11T02:32:48;101613.00;;;-9.60
4421;BMP180;11824;51.178;13.546;2024-01-11T02:35:18;101619.00;;;-9.60
4421;BMP180;11824;51.178;13.546;2024-01-11T02:37:47;101603.00;;;-9.60
4421;BMP180;11824;51.178;13.546;2024-01-11T02:40:18;101614.00;;;-9.60
4421;BMP180;11824;51.178;13.546;2024-01-11T02:42:47;101630.00;;;-9.60
4421;BMP180;11824;51.178;13.546;2024-01-11T02:45:15;101623.00;;;-9.60
4421;BMP180;11824;51.178;13.546;2024-01-11T02:47:44;101624.00;;;-9.60
4421;BMP180;11824;51.178;13.546;2024-01-11T02:50:13;101632.00;;;-9.60
4421;BMP180;11824;51.178;13.546;2024-01-11T02:52:42;101616.00;;;-9.60
4421;BMP180;11824;51.178;13.546;2024-01-11T02:55:11;101625.00;;;-9.50
4421;BMP180;11824;51.178;13.546;2024-01-11T02:57:41;101619.00;;;-9.50
4421;BMP180;11824;51.178;13.546;2024-01-11T03:00:10;101609.00;;;-9.60
4421;BMP180;11824;51.178;13.546;2024-01-11T03:02:39;101605.00;;;-9.60
4421;BMP180;11824;51.178;13.546;2024-01-11T03:05:09;101594.00;;;-9.60
4421;BMP180;11824;51.178;13.546;2024-01-11T03:07:38;101616.00;;;-9.60
4421;BMP180;11824;51.178;13.546;2024-01-11T03:10:07;101612.00;;;-9.60
4421;BMP180;11824;51.178;13.546;2024-01-11T03:12:36;101603.00;;;-9.60
4421;BMP180;11824;51.178;13.546;2024-01-11T03:15:07;101603.00;;;-9.60
4421;BMP180;11824;51.178;13.546;2024-01-11T03:17:35;101602.00;;;-9.70
4421;BMP180;11824;51.178;13.546;2024-01-11T03:20:05;101598.00;;;-9.70
4421;BMP180;11824;51.178;13.546;2024-01-11T03:22:34;101596.00;;;-9.70
4421;BMP180;11824;51.178;13.546;2024-01-11T03:25:04;101595.00;;;-9.70
4421;BMP180;11824;51.178;13.546;2024-01-11T03:27:33;101584.00;;;-9.70
4421;BMP180;11824;51.178;13.546;2024-01-11T03:30:02;101584.00;;;-9.80
4421;BMP180;11824;51.178;13.546;2024-01-11T03:32:33;101567.00;;;-9.80
4421;BMP180;11824;51.178;13.546;2024-01-11T03:35:02;101559.00;;;-9.80
4421;BMP180;11824;51.178;13.546;2024-01-11T03:37:31;101570.00;;;-9.80
4421;BMP180;11824;51.178;13.546;2024-01-11T03:40:00;101562.00;;;-9.80
4421;BMP180;11824;51.178;13.546;2024-01-11T03:42:29;101546.00;;;-9.80
4421;BMP180;11824;51.178;13.546;2024-01-11T03:44:58;101557.00;;;-9.80
4421;BMP180;11824;51.178;13.546;2024-01-11T03:47:27;101545.00;;;-9.90
4421;BMP180;11824;51.178;13.546;2024-01-11T03:49:57;101551.00;;;-9.90
4421;BMP180;11824;51.178;13.546;2024-01-11T03:52:26;101544.00;;;-9.90
4421;BMP180;11824;51.178;13.546;2024-01-11T03:54:55;101540.00;;;-9.90
4421;BMP180;11824;51.178;13.546;2024-01-11T03:57:23;101553.00;;;-9.90
4421;BMP180;11824;51.178;13.546;2024-01-11T03:59:52;101571.00;;;-9.90
4421;BMP180;11824;51.178;13.546;2024-01-11T04:02:21;101580.00;;;-9.90
4421;BMP180;11824;51.178;13.546;2024-01-11T04:04:50;101578.00;;;-9.80
4421;BMP180;11824;51.178;13.546;2024-01-11T04:07:20;101559.00;;;-9.90
4421;BMP180;11824;51.178;13.546;2024-01-11T04:09:49;101550.00;;;-9.80
4421;BMP180;11824;51.178;13.546;2024-01-11T04:12:17;101572.00;;;-9.90
4421;BMP180;11824;51.178;13.546;2024-01-11T04:14:46;101575.00;;;-9.80
4421;BMP180;11824;51.178;13.546;2024-01-11T04:17:15;101571.00;;;-9.80
4421;BMP180;11824;51.178;13.546;2024-01-11T04:19:44;101597.00;;;-9.80
4421;BMP180;11824;51.178;13.546;2024-01-11T04:22:12;101603.00;;;-9.80
4421;BMP180;11824;51.178;13.546;2024-01-11T04:24:43;101606.00;;;-9.70
4421;BMP180;11824;51.178;13.546;2024-01-11T04:27:12;101628.00;;;-9.70
4421;BMP180;11824;51.178;13.546;2024-01-11T04:29:41;101617.00;;;-9.70
4421;BMP180;11824;51.178;13.546;2024-01-11T04:32:10;101616.00;;;-9.70
4421;BMP180;11824;51.178;13.546;2024-01-11T04:34:38;101621.00;;;-9.70
4421;BMP180;11824;51.178;13.546;2024-01-11T04:37:07;101616.00;;;-9.70
4421;BMP180;11824;51.178;13.546;2024-01-11T04:39:36;101624.00;;;-9.70
4421;BMP180;11824;51.178;13.546;2024-01-11T04:42:06;101641.00;;;-9.70
4421;BMP180;11824;51.178;13.546;2024-01-11T04:44:35;101634.00;;;-9.70
4421;BMP180;11824;51.178;13.546;2024-01-11T04:47:04;101630.00;;;-9.70
4421;BMP180;11824;51.178;13.546;2024-01-11T04:49:33;101630.00;;;-9.70
4421;BMP180;11824;51.178;13.546;2024-01-11T04:52:02;101615.00;;;-9.70
4421;BMP180;11824;51.178;13.546;2024-01-11T04:54:31;101620.00;;;-9.70
4421;BMP180;11824;51.178;13.546;2024-01-11T04:57:00;101609.00;;;-9.70
4421;BMP180;11824;51.178;13.546;2024-01-11T04:59:30;101614.00;;;-9.70
4421;BMP180;11824;51.178;13.546;2024-01-11T05:01:59;101597.00;;;-9.80
4421;BMP180;11824;51.178;13.546;2024-01-11T05:04:27;101603.00;;;-9.70
4421;BMP180;11824;51.178;13.546;2024-01-11T05:06:56;101591.00;;;-9.80
4421;BMP180;11824;51.178;13.546;2024-01-11T05:09:25;101586.00;;;-9.80
4421;BMP180;11824;51.178;13.546;2024-01-11T05:11:53;101593.00;;;-9.80
4421;BMP180;11824;51.178;13.546;2024-01-11T05:14:22;101583.00;;;-9.80
4421;BMP180;11824;51.178;13.546;2024-01-11T05:16:52;101591.00;;;-9.80
4421;BMP180;11824;51.178;13.546;2024-01-11T05:19:21;101596.00;;;-9.80
4421;BMP180;11824;51.178;13.546;2024-01-11T05:21:50;101585.00;;;-9.80
4421;BMP180;11824;51.178;13.546;2024-01-11T05:24:19;101593.00;;;-9.80
4421;BMP180;11824;51.178;13.546;2024-01-11T05:26:48;101586.00;;;-9.80
4421;BMP180;11824;51.178;13.546;2024-01-11T05:29:17;101601.00;;;-9.80
4421;BMP180;11824;51.178;13.546;2024-01-11T05:31:45;101601.00;;;-9.80
4421;BMP180;11824;51.178;13.546;2024-01-11T05:34:16;101602.00;;;-9.80
4421;BMP180;11824;51.178;13.546;2024-01-11T05:36:45;101604.00;;;-9.80
4421;BMP180;11824;51.178;13.546;2024-01-11T05:39:13;101599.00;;;-9.80
4421;BMP180;11824;51.178;13.546;2024-01-11T05:41:44;101598.00;;;-9.80
4421;BMP180;11824;51.178;13.546;2024-01-11T05:44:13;101601.00;;;-9.80
4421;BMP180;11824;51.178;13.546;2024-01-11T05:46:41;101604.00;;;-9.80
4421;BMP180;11824;51.178;13.546;2024-01-11T05:49:11;101602.00;;;-9.80
4421;BMP180;11824;51.178;13.546;2024-01-11T05:51:41;101626.00;;;-9.80
4421;BMP180;11824;51.178;13.546;2024-01-11T05:54:10;101617.00;;;-9.80
4421;BMP180;11824;51.178;13.546;2024-01-11T05:56:39;101621.00;;;-9.70
4421;BMP180;11824;51.178;13.546;2024-01-11T05:59:08;101622.00;;;-9.70
4421;BMP180;11824;51.178;13.546;2024-01-11T06:01:41;101616.00;;;-9.70
4421;BMP180;11824;51.178;13.546;2024-01-11T06:04:10;101617.00;;;-9.70
4421;BMP180;11824;51.178;13.546;2024-01-11T06:06:40;101621.00;;;-9.70
4421;BMP180;11824;51.178;13.546;2024-01-11T06:09:09;101624.00;;;-9.70
4421;BMP180;11824;51.178;13.546;2024-01-11T06:11:38;101628.00;;;-9.70
4421;BMP180;11824;51.178;13.546;2024-01-11T06:14:07;101631.00;;;-9.70
4421;BMP180;11824;51.178;13.546;2024-01-11T06:16:36;101632.00;;;-9.70
4421;BMP180;11824;51.178;13.546;2024-01-11T06:19:05;101631.00;;;-9.70
4421;BMP180;11824;51.178;13.546;2024-01-11T06:21:35;101628.00;;;-9.70
4421;BMP180;11824;51.178;13.546;2024-01-11T06:24:05;101638.00;;;-9.70
4421;BMP180;11824;51.178;13.546;2024-01-11T06:26:34;101626.00;;;-9.60
4421;BMP180;11824;51.178;13.546;2024-01-11T06:29:03;101629.00;;;-9.60
4421;BMP180;11824;51.178;13.546;2024-01-11T06:31:31;101622.00;;;-9.60
4421;BMP180;11824;51.178;13.546;2024-01-11T06:34:00;101616.00;;;-9.60
4421;BMP180;11824;51.178;13.546;2024-01-11T06:36:30;101603.00;;;-9.60
4421;BMP180;11824;51.178;13.546;2024-01-11T06:38:59;101608.00;;;-9.60
4421;BMP180;11824;51.178;13.546;2024-01-11T06:41:30;101600.00;;;-9.60
4421;BMP180;11824;51.178;13.546;2024-01-11T06:43:58;101586.00;;;-9.60
4421;BMP180;11824;51.178;13.546;2024-01-11T06:46:28;101562.00;;;-9.60
4421;BMP180;11824;51.178;13.546;2024-01-11T06:48:57;101583.00;;;-9.60
4421;BMP180;11824;51.178;13.546;2024-01-11T06:51:26;101587.00;;;-9.50
4421;BMP180;11824;51.178;13.546;2024-01-11T06:53:55;101587.00;;;-9.50
4421;BMP180;11824;51.178;13.546;2024-01-11T06:56:24;101585.00;;;-9.50
4421;BMP180;11824;51.178;13.546;2024-01-11T06:58:55;101578.00;;;-9.50
4421;BMP180;11824;51.178;13.546;2024-01-11T07:01:24;101571.00;;;-9.40
4421;BMP180;11824;51.178;13.546;2024-01-11T07:03:53;101553.00;;;-9.40
4421;BMP180;11824;51.178;13.546;2024-01-11T07:06:21;101561.00;;;-9.30
4421;BMP180;11824;51.178;13.546;2024-01-11T07:08:50;101565.00;;;-9.30
4421;BMP180;11824;51.178;13.546;2024-01-11T07:11:19;101558.00;;;-9.20
4421;BMP180;11824;51.178;13.546;2024-01-11T07:13:48;101576.00;;;-9.20
4421;BMP180;11824;51.178;13.546;2024-01-11T07:16:19;101560.00;;;-9.10
4421;BMP180;11824;51.178;13.546;2024-01-11T07:18:47;101573.00;;;-9.00
4421;BMP180;11824;51.178;13.546;2024-01-11T07:21:21;101583.00;;;-9.00
4421;BMP180;11824;51.178;13.546;2024-01-11T07:23:57;101579.00;;;-8.90
4421;BMP180;11824;51.178;13.546;2024-01-11T07:26:26;101574.00;;;-8.90
4421;BMP180;11824;51.178;13.546;2024-01-11T07:28:55;101578.00;;;-8.90
4421;BMP180;11824;51.178;13.546;2024-01-11T07:31:26;101567.00;;;-8.80
4421;BMP180;11824;51.178;13.546;2024-01-11T07:33:54;101565.00;;;-8.80
4421;BMP180;11824;51.178;13.546;2024-01-11T07:36:23;101564.00;;;-8.70
4421;BMP180;11824;51.178;13.546;2024-01-11T07:38:52;101581.00;;;-8.70
4421;BMP180;11824;51.178;13.546;2024-01-11T07:41:22;101569.00;;;-8.60
4421;BMP180;11824;51.178;13.546;2024-01-11T07:43:51;101562.00;;;-8.60
4421;BMP180;11824;51.178;13.546;2024-01-11T07:46:21;101554.00;;;-8.50
4421;BMP180;11824;51.178;13.546;2024-01-11T07:49:06;101574.00;;;-8.50
4421;BMP180;11824;51.178;13.546;2024-01-11T07:51:35;101567.00;;;-8.40
4421;BMP180;11824;51.178;13.546;2024-01-11T07:54:04;101583.00;;;-8.40
4421;BMP180;11824;51.178;13.546;2024-01-11T07:56:33;101590.00;;;-8.30
4421;BMP180;11824;51.178;13.546;2024-01-11T07:59:02;101598.00;;;-8.30
4421;BMP180;11824;51.178;13.546;2024-01-11T08:01:31;101600.00;;;-8.20
4421;BMP180;11824;51.178;13.546;2024-01-11T08:04:03;101620.00;;;-8.20
4421;BMP180;11824;51.178;13.546;2024-01-11T08:06:33;101627.00;;;-8.10
4421;BMP180;11824;51.178;13.546;2024-01-11T08:09:02;101608.00;;;-7.90
4421;BMP180;11824;51.178;13.546;2024-01-11T08:11:32;101591.00;;;-7.80
4421;BMP180;11824;51.178;13.546;2024-01-11T08:14:04;101571.00;;;-7.70
4421;BMP180;11824;51.178;13.546;2024-01-11T08:16:34;101581.00;;;-7.60
4421;BMP180;11824;51.178;13.546;2024-01-11T08:19:03;101598.00;;;-7.50
4421;BMP180;11824;51.178;13.546;2024-01-11T08:21:33;101605.00;;;-7.30
4421;BMP180;11824;51.178;13.546;2024-01-11T08:24:02;101587.00;;;-7.20
4421;BMP180;11824;51.178;13.546;2024-01-11T08:26:31;101592.00;;;-7.10
4421;BMP180;11824;51.178;13.546;2024-01-11T08:29:00;101595.00;;;-6.90
4421;BMP180;11824;51.178;13.546;2024-01-11T08:31:29;101590.00;;;-6.80
4421;BMP180;11824;51.178;13.546;2024-01-11T08:33:58;101603.00;;;-6.60
4421;BMP180;11824;51.178;13.546;2024-01-11T08:36:32;101589.00;;;-6.40
4421;BMP180;11824;51.178;13.546;2024-01-11T08:39:02;101576.00;;;-6.20
4421;BMP180;11824;51.178;13.546;2024-01-11T08:41:33;101577.00;;;-6.00
4421;BMP180;11824;51.178;13.546;2024-01-11T08:44:02;101584.00;;;-5.90
4421;BMP180;11824;51.178;13.546;2024-01-11T08:46:33;101601.00;;;-5.70
4421;BMP180;11824;51.178;13.546;2024-01-11T08:49:02;101587.00;;;-5.50
4421;BMP180;11824;51.178;13.546;2024-01-11T08:51:33;101589.00;;;-5.40
4421;BMP180;11824;51.178;13.546;2024-01-11T08:54:02;101583.00;;;-5.40
4421;BMP180;11824;51.178;13.546;2024-01-11T08:56:31;101584.00;;;-5.30
4421;BMP180;11824;51.178;13.546;2024-01-11T08:59:00;101577.00;;;-5.30
4421;BMP180;11824;51.178;13.546;2024-01-11T09:01:29;101585.00;;;-5.30
4421;BMP180;11824;51.178;13.546;2024-01-11T09:03:59;101572.00;;;-5.30
4421;BMP180;11824;51.178;13.546;2024-01-11T09:06:28;101577.00;;;-5.30
4421;BMP180;11824;51.178;13.546;2024-01-11T09:08:59;101582.00;;;-5.30
4421;BMP180;11824;51.178;13.546;2024-01-11T09:11:27;101585.00;;;-5.30
4421;BMP180;11824;51.178;13.546;2024-01-11T09:13:57;101587.00;;;-5.20
4421;BMP180;11824;51.178;13.546;2024-01-11T09:16:25;101580.00;;;-5.10
4421;BMP180;11824;51.178;13.546;2024-01-11T09:18:54;101590.00;;;-5.00
4421;BMP180;11824;51.178;13.546;2024-01-11T09:21:24;101604.00;;;-4.90
4421;BMP180;11824;51.178;13.546;2024-01-11T09:23:53;101597.00;;;-4.80
4421;BMP180;11824;51.178;13.546;2024-01-11T09:26:24;101591.00;;;-4.60
4421;BMP180;11824;51.178;13.546;2024-01-11T09:28:52;101597.00;;;-4.50
4421;BMP180;11824;51.178;13.546;2024-01-11T09:31:21;101606.00;;;-4.40
4421;BMP180;11824;51.178;13.546;2024-01-11T09:33:50;101608.00;;;-4.30
4421;BMP180;11824;51.178;13.546;2024-01-11T09:36:20;101607.00;;;-4.20
4421;BMP180;11824;51.178;13.546;2024-01-11T09:38:49;101616.00;;;-4.20
4421;BMP180;11824;51.178;13.546;2024-01-11T09:41:18;101635.00;;;-4.00
4421;BMP180;11824;51.178;13.546;2024-01-11T09:43:49;101620.00;;;-4.00
4421;BMP180;11824;51.178;13.546;2024-01-11T09:46:21;101621.00;;;-3.90
4421;BMP180;11824;51.178;13.546;2024-01-11T09:48:51;101621.00;;;-3.80
4421;BMP180;11824;51.178;13.546;2024-01-11T09:51:20;101608.00;;;-3.80
4421;BMP180;11824;51.178;13.546;2024-01-11T09:53:51;101606.00;;;-3.70
4421;BMP180;11824;51.178;13.546;2024-01-11T09:56:20;101602.00;;;-3.70
4421;BMP180;11824;51.178;13.546;2024-01-11T09:58:51;101609.00;;;-3.70
4421;BMP180;11824;51.178;13.546;2024-01-11T10:01:20;101580.00;;;-3.70
4421;BMP180;11824;51.178;13.546;2024-01-11T10:03:50;101574.00;;;-3.70
4421;BMP180;11824;51.178;13.546;2024-01-11T10:06:21;101577.00;;;-3.70
4421;BMP180;11824;51.178;13.546;2024-01-11T10:08:51;101575.00;;;-3.80
4421;BMP180;11824;51.178;13.546;2024-01-11T10:11:20;101574.00;;;-3.80
4421;BMP180;11824;51.178;13.546;2024-01-11T10:13:56;101570.00;;;-3.90
4421;BMP180;11824;51.178;13.546;2024-01-11T10:16:25;101568.00;;;-3.90
4421;BMP180;11824;51.178;13.546;2024-01-11T10:18:54;101563.00;;;-4.00
4421;BMP180;11824;51.178;13.546;2024-01-11T10:21:24;101550.00;;;-4.00
4421;BMP180;11824;51.178;13.546;2024-01-11T10:23:52;101553.00;;;-4.00
4421;BMP180;11824;51.178;13.546;2024-01-11T10:26:21;101557.00;;;-3.90
4421;BMP180;11824;51.178;13.546;2024-01-11T10:28:51;101551.00;;;-3.90
4421;BMP180;11824;51.178;13.546;2024-01-11T10:31:22;101547.00;;;-3.80
4421;BMP180;11824;51.178;13.546;2024-01-11T10:33:55;101550.00;;;-3.80
4421;BMP180;11824;51.178;13.546;2024-01-11T10:36:24;101558.00;;;-3.70
4421;BMP180;11824;51.178;13.546;2024-01-11T10:38:53;101539.00;;;-3.70
4421;BMP180;11824;51.178;13.546;2024-01-11T10:41:24;101528.00;;;-3.60
4421;BMP180;11824;51.178;13.546;2024-01-11T10:43:55;101533.00;;;-3.50
4421;BMP180;11824;51.178;13.546;2024-01-11T10:46:26;101538.00;;;-3.50
4421;BMP180;11824;51.178;13.546;2024-01-11T10:48:59;101548.00;;;-3.40
4421;BMP180;11824;51.178;13.546;2024-01-11T10:51:33;101550.00;;;-3.30
4421;BMP180;11824;51.178;13.546;2024-01-11T10:54:02;101543.00;;;-3.20
4421;BMP180;11824;51.178;13.546;2024-01-11T10:56:33;101542.00;;;-3.20
4421;BMP180;11824;51.178;13.546;2024-01-11T10:59:04;101543.00;;;-3.10
4421;BMP180;11824;51.178;13.546;2024-01-11T11:01:33;101528.00;;;-3.10
4421;BMP180;11824;51.178;13.546;2024-01-11T11:04:03;101522.00;;;-3.10
4421;BMP180;11824;51.178;13.546;2024-01-11T11:06:32;101523.00;;;-3.00
4421;BMP180;11824;51.178;13.546;2024-01-11T11:09:05;101532.00;;;-2.90
4421;BMP180;11824;51.178;13.546;2024-01-11T11:11:35;101519.00;;;-2.80
4421;BMP180;11824;51.178;13.546;2024-01-11T11:14:06;101518.00;;;-2.70
4421;BMP180;11824;51.178;13.546;2024-01-11T11:16:36;101510.00;;;-2.60
4421;BMP180;11824;51.178;13.546;2024-01-11T11:19:05;101502.00;;;-2.40
4421;BMP180;11824;51.178;13.546;2024-01-11T11:21:42;101510.00;;;-2.30
4421;BMP180;11824;51.178;13.546;2024-01-11T11:24:12;101499.00;;;-2.10
4421;BMP180;11824;51.178;13.546;2024-01-11T11:26:41;101501.00;;;-2.00
4421;BMP180;11824;51.178;13.546;2024-01-11T11:29:11;101489.00;;;-1.80
4421;BMP180;11824;51.178;13.546;2024-01-11T11:31:43;101479.00;;;-1.60
4421;BMP180;11824;51.178;13.546;2024-01-11T11:34:13;101474.00;;;-1.50
4421;BMP180;11824;51.178;13.546;2024-01-11T11:36:42;101483.00;;;-1.30
4421;BMP180;11824;51.178;13.546;2024-01-11T11:39:11;101493.00;;;-1.20
4421;BMP180;11824;51.178;13.546;2024-01-11T11:41:40;101486.00;;;-1.10
4421;BMP180;11824;51.178;13.546;2024-01-11T11:44:12;101482.00;;;-1.00
4421;BMP180;11824;51.178;13.546;2024-01-11T11:46:41;101475.00;;;-0.90
4421;BMP180;11824;51.178;13.546;2024-01-11T11:49:11;101479.00;;;-0.80
4421;BMP180;11824;51.178;13.546;2024-01-11T11:51:42;101491.00;;;-0.70
4421;BMP180;11824;51.178;13.546;2024-01-11T11:54:11;101495.00;;;-0.70
4421;BMP180;11824;51.178;13.546;2024-01-11T11:56:42;101498.00;;;-0.70
4421;BMP180;11824;51.178;13.546;2024-01-11T11:59:14;101487.00;;;-0.70
4421;BMP180;11824;51.178;13.546;2024-01-11T12:01:44;101480.00;;;-0.70
4421;BMP180;11824;51.178;13.546;2024-01-11T12:04:14;101485.00;;;-0.70
4421;BMP180;11824;51.178;13.546;2024-01-11T12:06:44;101492.00;;;-0.70
4421;BMP180;11824;51.178;13.546;2024-01-11T12:09:18;101479.00;;;-0.70
4421;BMP180;11824;51.178;13.546;2024-01-11T12:11:49;101464.00;;;-0.70
4421;BMP180;11824;51.178;13.546;2024-01-11T12:14:34;101483.00;;;-0.70
4421;BMP180;11824;51.178;13.546;2024-01-11T12:17:04;101476.00;;;-0.70
4421;BMP180;11824;51.178;13.546;2024-01-11T12:19:34;101464.00;;;-0.60
4421;BMP180;11824;51.178;13.546;2024-01-11T12:22:03;101459.00;;;-0.60
4421;BMP180;11824;51.178;13.546;2024-01-11T12:24:32;101449.00;;;-0.50
4421;BMP180;11824;51.178;13.546;2024-01-11T12:27:02;101451.00;;;-0.50
4421;BMP180;11824;51.178;13.546;2024-01-11T12:29:31;101459.00;;;-0.50
4421;BMP180;11824;51.178;13.546;2024-01-11T12:32:12;101452.00;;;-0.40
4421;BMP180;11824;51.178;13.546;2024-01-11T12:34:44;101445.00;;;-0.40
4421;BMP180;11824;51.178;13.546;2024-01-11T12:37:13;101454.00;;;-0.50
4421;BMP180;11824;51.178;13.546;2024-01-11T12:39:42;101445.00;;;-0.50
4421;BMP180;11824;51.178;13.546;2024-01-11T12:42:10;101449.00;;;-0.50
4421;BMP180;11824;51.178;13.546;2024-01-11T12:44:39;101440.00;;;-0.60
4421;BMP180;11824;51.178;13.546;2024-01-11T12:47:11;101442.00;;;-0.60
4421;BMP180;11824;51.178;13.546;2024-01-11T12:49:43;101436.00;;;-0.60
4421;BMP180;11824;51.178;13.546;2024-01-11T12:52:16;101437.00;;;-0.70
4421;BMP180;11824;51.178;13.546;2024-01-11T12:54:45;101439.00;;;-0.70
4421;BMP180;11824;51.178;13.546;2024-01-11T12:57:18;101442.00;;;-0.70
4421;BMP180;11824;51.178;13.546;2024-01-11T12:59:48;101434.00;;;-0.80
4421;BMP180;11824;51.178;13.546;2024-01-11T13:02:18;101452.00;;;-0.80
4421;BMP180;11824;51.178;13.546;2024-01-11T13:04:47;101458.00;;;-0.90
4421;BMP180;11824;51.178;13.546;2024-01-11T13:07:18;101465.00;;;-0.90
4421;BMP180;11824;51.178;13.546;2024-01-11T13:09:50;101461.00;;;-0.90
4421;BMP180;11824;51.178;13.546;2024-01-11T13:12:19;101449.00;;;-1.00
4421;BMP180;11824;51.178;13.546;2024-01-11T13:14:49;101447.00;;;-1.10
4421;BMP180;11824;51.178;13.546;2024-01-11T13:17:21;101450.00;;;-1.10
4421;BMP180;11824;51.178;13.546;2024-01-11T13:19:50;101442.00;;;-1.20
4421;BMP180;11824;51.178;13.546;2024-01-11T13:22:20;101441.00;;;-1.20
4421;BMP180;11824;51.178;13.546;2024-01-11T13:24:48;101433.00;;;-1.30
4421;BMP180;11824;51.178;13.546;2024-01-11T13:27:17;101429.00;;;-1.30
4421;BMP180;11824;51.178;13.546;2024-01-11T13:29:46;101423.00;;;-1.40
4421;BMP180;11824;51.178;13.546;2024-01-11T13:32:15;101422.00;;;-1.40
4421;BMP180;11824;51.178;13.546;2024-01-11T13:34:45;101428.00;;;-1.50
4421;BMP180;11824;51.178;13.546;2024-01-11T13:37:14;101434.00;;;-1.50
4421;BMP180;11824;51.178;13.546;2024-01-11T13:39:43;101445.00;;;-1.50
4421;BMP180;11824;51.178;13.546;2024-01-11T13:42:11;101441.00;;;-1.50
4421;BMP180;11824;51.178;13.546;2024-01-11T13:44:42;101448.00;;;-1.40
4421;BMP180;11824;51.178;13.546;2024-01-11T13:47:11;101452.00;;;-1.40
4421;BMP180;11824;51.178;13.546;2024-01-11T13:49:40;101456.00;;;-1.40
4421;BMP180;11824;51.178;13.546;2024-01-11T13:52:11;101458.00;;;-1.40
4421;BMP180;11824;51.178;13.546;2024-01-11T13:54:39;101447.00;;;-1.40
4421;BMP180;11824;51.178;13.546;2024-01-11T13:57:08;101445.00;;;-1.40
4421;BMP180;11824;51.178;13.546;2024-01-11T13:59:37;101439.00;;;-1.40
4421;BMP180;11824;51.178;13.546;2024-01-11T14:02:06;101440.00;;;-1.40
4421;BMP180;11824;51.178;13.546;2024-01-11T14:04:35;101435.00;;;-1.40
4421;BMP180;11824;51.178;13.546;2024-01-11T14:07:04;101435.00;;;-1.40
4421;BMP180;11824;51.178;13.546;2024-01-11T14:09:35;101431.00;;;-1.40